createdAt,value
2022-09-05T00:01:41.281Z,101332.56
2022-09-05T00:04:25.088Z,101336.13
2022-09-05T00:07:10.743Z,101335.44
2022-09-05T00:10:08.942Z,101337.22
2022-09-05T00:12:36.067Z,101346.09
2022-09-05T00:15:17.121Z,101347.19
2022-09-05T00:18:32.462Z,101333.78
2022-09-05T00:24:27.649Z,101334.53
2022-09-05T00:24:37.914Z,101341.56
2022-09-05T00:27:01.222Z,101338.97
2022-09-05T00:31:07.720Z,101331.03
2022-09-05T00:32:49.531Z,101337.00
2022-09-05T00:35:35.577Z,101339.56
2022-09-05T00:38:15.266Z,101329.75
2022-09-05T00:40:54.333Z,101326.75
2022-09-05T00:43:28.250Z,101328.41
2022-09-05T00:46:13.538Z,101336.94
2022-09-05T00:48:49.395Z,101338.97
2022-09-05T00:51:54.250Z,101331.00
2022-09-05T00:54:28.379Z,101338.00
2022-09-05T00:57:30.482Z,101343.78
2022-09-05T01:00:25.589Z,101337.75
2022-09-05T01:03:43.371Z,101341.81
2022-09-05T01:06:33.836Z,101340.66
2022-09-05T01:09:24.697Z,101340.72
2022-09-05T01:11:54.232Z,101344.78
2022-09-05T01:14:32.747Z,101340.81
2022-09-05T01:17:17.316Z,101335.72
2022-09-05T01:20:18.885Z,101341.97
2022-09-05T01:23:08.541Z,101348.94
2022-09-05T01:26:04.260Z,101351.66
2022-09-05T01:29:15.390Z,101348.59
2022-09-05T01:32:10.335Z,101349.72
2022-09-05T01:35:01.388Z,101352.16
2022-09-05T01:38:10.136Z,101344.75
2022-09-05T01:41:03.168Z,101337.84
2022-09-05T01:43:52.385Z,101333.09
2022-09-05T01:46:34.780Z,101345.34
2022-09-05T01:49:33.785Z,101347.81
2022-09-05T01:52:22.946Z,101346.38
2022-09-05T01:56:04.594Z,101347.22
2022-09-05T01:59:01.550Z,101343.84
2022-09-05T02:01:40.007Z,101342.13
2022-09-05T02:04:41.620Z,101337.69
2022-09-05T02:07:44.557Z,101341.50
2022-09-05T02:10:48.735Z,101339.56
2022-09-05T02:13:36.133Z,101343.63
2022-09-05T02:16:21.570Z,101346.66
2022-09-05T02:19:01.335Z,101346.59
2022-09-05T02:21:40.670Z,101341.13
2022-09-05T02:24:41.522Z,101342.13
2022-09-05T02:27:47.585Z,101342.41
2022-09-05T02:30:16.859Z,101341.56
2022-09-05T02:33:02.235Z,101340.63
2022-09-05T02:35:37.908Z,101341.53
2022-09-05T02:40:00.948Z,101332.75
2022-09-05T02:45:20.340Z,101330.56
2022-09-05T02:45:23.947Z,101325.31
2022-09-05T02:47:24.326Z,101331.19
2022-09-05T02:55:25.245Z,101328.19
2022-09-05T02:57:34.739Z,101332.16
2022-09-05T02:58:05.536Z,101332.00
2022-09-05T02:59:10.048Z,101330.16
2022-09-05T03:01:55.584Z,101333.88
2022-09-05T03:04:48.768Z,101321.13
2022-09-05T03:07:29.609Z,101325.47
2022-09-05T03:10:53.643Z,101320.69
2022-09-05T03:13:30.389Z,101314.22
2022-09-05T03:16:08.943Z,101317.22
2022-09-05T03:18:35.516Z,101318.78
2022-09-05T03:21:30.426Z,101307.72
2022-09-05T03:24:15.900Z,101319.63
2022-09-05T03:27:16.292Z,101317.78
2022-09-05T03:29:58.713Z,101316.09
2022-09-05T03:32:49.910Z,101313.38
2022-09-05T03:35:25.505Z,101322.59
2022-09-05T03:38:02.352Z,101317.66
2022-09-05T03:40:37.930Z,101319.34
2022-09-05T03:43:34.607Z,101323.06
2022-09-05T03:46:04.316Z,101327.28
2022-09-05T03:48:42.860Z,101329.25
2022-09-05T03:57:18.318Z,101330.84
2022-09-05T03:57:21.026Z,101330.28
2022-09-05T03:57:42.310Z,101330.03
2022-09-05T04:00:20.990Z,101329.28
2022-09-05T04:08:06.182Z,101335.56
2022-09-05T04:08:15.371Z,101335.72
2022-09-05T04:09:49.431Z,101334.31
2022-09-05T04:12:28.334Z,101346.22
2022-09-05T04:15:15.096Z,101332.41
2022-09-05T04:17:52.618Z,101345.78
2022-09-05T04:20:43.344Z,101347.22
2022-09-05T04:23:18.910Z,101344.13
2022-09-05T04:26:11.264Z,101345.22
2022-09-05T04:28:53.593Z,101349.03
2022-09-05T04:31:31.933Z,101359.31
2022-09-05T04:34:53.644Z,101350.06
2022-09-05T04:37:48.567Z,101355.41
2022-09-05T04:40:33.058Z,101355.22
2022-09-05T04:43:12.197Z,101364.06
2022-09-05T04:45:44.815Z,101363.06
2022-09-05T04:48:15.827Z,101362.16
2022-09-05T04:51:03.954Z,101370.63
2022-09-05T04:53:42.101Z,101363.53
2022-09-05T04:56:17.141Z,101368.63
2022-09-05T05:00:41.111Z,101377.22
2022-09-05T05:06:01.308Z,101373.53
2022-09-05T05:06:12.753Z,101376.50
2022-09-05T05:07:50.638Z,101377.53
2022-09-05T05:13:51.200Z,101388.16
2022-09-05T05:18:02.713Z,101391.81
2022-09-05T05:18:14.370Z,101397.84
2022-09-05T05:19:34.068Z,101396.72
2022-09-05T05:22:04.634Z,101398.88
2022-09-05T05:24:34.954Z,101404.97
2022-09-05T05:27:27.874Z,101401.31
2022-09-05T05:30:00.370Z,101400.81
2022-09-05T05:32:45.475Z,101402.50
2022-09-05T05:35:15.872Z,101410.19
2022-09-05T05:38:25.115Z,101418.06
2022-09-05T05:41:05.490Z,101412.13
2022-09-05T05:43:37.961Z,101419.91
2022-09-05T05:46:04.850Z,101416.34
2022-09-05T05:48:39.635Z,101418.03
2022-09-05T05:51:44.112Z,101414.22
2022-09-05T05:54:28.719Z,101417.53
2022-09-05T05:57:19.861Z,101419.09
2022-09-05T05:59:59.094Z,101411.94
2022-09-05T06:02:39.050Z,101419.19
2022-09-05T06:05:33.304Z,101427.59
2022-09-05T06:12:01.184Z,101413.41
2022-09-05T06:15:03.787Z,101411.97
2022-09-05T06:15:09.153Z,101415.38
2022-09-05T06:17:59.457Z,101414.41
2022-09-05T06:22:05.431Z,101416.78
2022-09-05T06:23:39.192Z,101420.41
2022-09-05T06:26:24.794Z,101413.28
2022-09-05T06:28:56.808Z,101419.13
2022-09-05T06:31:29.758Z,101426.34
2022-09-05T06:34:00.456Z,101418.53
2022-09-05T06:36:54.554Z,101412.03
2022-09-05T06:39:58.493Z,101420.97
2022-09-05T06:42:46.596Z,101433.31
2022-09-05T06:45:58.838Z,101418.84
2022-09-05T06:49:30.514Z,101438.66
2022-09-05T06:52:28.218Z,101432.59
2022-09-05T06:55:05.073Z,101430.06
2022-09-05T06:57:53.372Z,101432.56
2022-09-05T07:00:40.410Z,101434.88
2022-09-05T07:03:19.081Z,101443.00
2022-09-05T07:05:56.603Z,101421.66
2022-09-05T07:08:39.216Z,101437.56
2022-09-05T07:11:15.621Z,101438.13
2022-09-05T07:13:55.791Z,101442.28
2022-09-05T07:16:38.370Z,101437.88
2022-09-05T07:19:26.735Z,101434.09
2022-09-05T07:22:18.402Z,101448.09
2022-09-05T07:25:18.325Z,101428.13
2022-09-05T07:28:29.705Z,101451.56
2022-09-05T07:30:46.729Z,101436.25
2022-09-05T07:33:19.311Z,101458.38
2022-09-05T07:35:46.036Z,101451.53
2022-09-05T07:38:21.308Z,101444.38
2022-09-05T07:40:56.292Z,101454.41
2022-09-05T07:43:33.293Z,101447.47
2022-09-05T07:46:11.544Z,101450.13
2022-09-05T07:48:46.417Z,101452.97
2022-09-05T07:56:55.619Z,101466.78
2022-09-05T07:57:09.217Z,101464.84
2022-09-05T08:00:02.430Z,101454.44
2022-09-05T08:02:28.909Z,101457.56
2022-09-05T08:05:02.368Z,101449.66
2022-09-05T08:07:46.633Z,101454.25
2022-09-05T08:10:20.795Z,101434.41
2022-09-05T08:13:24.281Z,101439.81
2022-09-05T08:16:13.594Z,101446.78
2022-09-05T08:19:01.804Z,101442.78
2022-09-05T08:21:42.024Z,101443.38
2022-09-05T08:24:15.689Z,101432.50
2022-09-05T08:27:05.935Z,101440.53
2022-09-05T08:29:48.266Z,101439.31
2022-09-05T08:32:49.047Z,101435.88
2022-09-05T08:35:26.691Z,101438.63
2022-09-05T08:37:54.418Z,101424.81
2022-09-05T08:40:37.173Z,101431.50
2022-09-05T08:46:35.274Z,101430.09
2022-09-05T08:46:42.369Z,101420.66
2022-09-05T08:49:32.382Z,101423.56
2022-09-05T08:52:18.614Z,101427.75
2022-09-05T08:55:06.240Z,101428.25
2022-09-05T08:57:45.321Z,101418.38
2022-09-05T09:00:20.652Z,101415.88
2022-09-05T09:02:57.201Z,101409.16
2022-09-05T09:06:08.490Z,101409.56
2022-09-05T09:09:13.608Z,101397.34
2022-09-05T09:12:05.887Z,101401.94
2022-09-05T09:14:41.901Z,101401.44
2022-09-05T09:17:21.273Z,101392.09
2022-09-05T09:20:09.776Z,101388.66
2022-09-05T09:22:52.102Z,101386.81
2022-09-05T09:25:31.910Z,101395.84
2022-09-05T09:28:48.539Z,101386.81
2022-09-05T09:30:59.260Z,101381.22
2022-09-05T09:33:44.518Z,101385.47
2022-09-05T09:36:39.369Z,101382.59
2022-09-05T09:39:37.172Z,101387.66
2022-09-05T09:42:32.924Z,101365.84
2022-09-05T09:45:29.522Z,101380.72
2022-09-05T09:48:33.548Z,101380.34
2022-09-05T09:51:12.271Z,101380.00
2022-09-05T09:53:38.722Z,101371.63
2022-09-05T09:56:20.178Z,101363.63
2022-09-05T09:59:29.298Z,101357.72
2022-09-05T10:05:16.615Z,101358.22
2022-09-05T10:10:45.321Z,101346.50
2022-09-05T10:10:45.726Z,101347.47
2022-09-05T10:11:51.421Z,101353.19
2022-09-05T10:14:49.519Z,101347.06
2022-09-05T10:17:57.040Z,101342.53
2022-09-05T10:20:53.903Z,101342.09
2022-09-05T10:23:52.339Z,101339.97
2022-09-05T10:26:48.046Z,101340.66
2022-09-05T10:29:53.752Z,101334.38
2022-09-05T10:35:10.780Z,101346.97
2022-09-05T10:35:42.391Z,101337.59
2022-09-05T10:38:34.376Z,101333.56
2022-09-05T10:41:22.058Z,101317.22
2022-09-05T10:44:02.943Z,101323.03
2022-09-05T10:46:52.052Z,101322.88
2022-09-05T10:49:30.189Z,101324.91
2022-09-05T10:52:03.521Z,101322.78
2022-09-05T10:54:48.526Z,101321.41
2022-09-05T10:57:31.527Z,101324.25
2022-09-05T11:02:24.378Z,101310.53
2022-09-05T11:03:22.695Z,101310.19
2022-09-05T11:05:58.254Z,101305.66
2022-09-05T11:08:31.559Z,101304.06
2022-09-05T11:11:26.018Z,101305.06
2022-09-05T11:14:00.757Z,101303.75
2022-09-05T11:16:36.171Z,101295.44
2022-09-05T11:19:32.550Z,101298.91
2022-09-05T11:22:22.250Z,101285.16
2022-09-05T11:24:55.797Z,101282.84
2022-09-05T11:27:54.747Z,101295.75
2022-09-05T11:30:30.366Z,101284.88
2022-09-05T11:36:56.519Z,101294.50
2022-09-05T11:39:56.166Z,101279.16
2022-09-05T11:39:57.726Z,101281.25
2022-09-05T11:42:02.131Z,101271.81
2022-09-05T11:44:35.684Z,101283.00
2022-09-05T11:47:30.123Z,101277.53
2022-09-05T11:50:35.713Z,101284.34
2022-09-05T11:53:05.217Z,101268.00
2022-09-05T11:56:05.980Z,101282.09
2022-09-05T11:58:53.834Z,101279.06
2022-09-05T12:02:16.882Z,101263.97
2022-09-05T12:05:49.689Z,101269.94
2022-09-05T12:08:20.771Z,101264.66
2022-09-05T12:11:11.339Z,101265.16
2022-09-05T12:13:42.522Z,101270.69
2022-09-05T12:16:36.463Z,101264.41
2022-09-05T12:19:22.989Z,101255.28
2022-09-05T12:22:08.769Z,101246.03
2022-09-05T12:25:26.450Z,101242.72
2022-09-05T12:27:46.193Z,101250.81
2022-09-05T12:30:21.945Z,101251.94
2022-09-05T12:36:02.626Z,101245.84
2022-09-05T12:40:59.476Z,101227.25
2022-09-05T12:41:42.326Z,101239.91
2022-09-05T12:44:34.840Z,101234.38
2022-09-05T12:46:23.566Z,101226.97
2022-09-05T12:48:50.721Z,101223.81
2022-09-05T12:51:45.750Z,101222.66
2022-09-05T12:54:24.541Z,101228.09
2022-09-05T13:02:18.656Z,101219.75
2022-09-05T13:03:06.815Z,101225.25
2022-09-05T13:03:28.428Z,101211.63
2022-09-05T13:06:05.321Z,101209.34
2022-09-05T13:09:01.934Z,101204.44
2022-09-05T13:14:55.450Z,101204.91
2022-09-05T13:14:57.341Z,101206.63
2022-09-05T13:17:14.202Z,101199.66
2022-09-05T13:19:50.988Z,101205.88
2022-09-05T13:22:22.226Z,101200.16
2022-09-05T13:25:12.914Z,101201.66
2022-09-05T13:27:56.492Z,101191.59
2022-09-05T13:33:49.113Z,101200.03
2022-09-05T13:38:05.482Z,101180.56
2022-09-05T13:38:15.621Z,101190.75
2022-09-05T13:39:04.604Z,101182.94
2022-09-05T13:41:41.881Z,101181.53
2022-09-05T13:44:25.581Z,101187.34
2022-09-05T13:46:58.327Z,101179.59
2022-09-05T13:49:31.709Z,101164.38
2022-09-05T13:52:05.609Z,101165.03
2022-09-05T13:54:42.315Z,101169.72
2022-09-05T13:57:31.758Z,101161.50
2022-09-05T14:00:26.815Z,101165.72
2022-09-05T14:06:45.180Z,101161.44
2022-09-05T14:09:40.962Z,101164.44
2022-09-05T14:12:37.784Z,101165.16
2022-09-05T14:15:26.209Z,101155.19
2022-09-05T14:18:21.834Z,101158.59
2022-09-05T14:21:17.141Z,101147.06
2022-09-05T14:23:53.820Z,101164.91
2022-09-05T14:26:34.509Z,101159.81
2022-09-05T14:29:09.812Z,101160.13
2022-09-05T14:37:39.711Z,101142.78
2022-09-05T14:37:45.331Z,101147.72
2022-09-05T14:38:38.121Z,101150.97
2022-09-05T14:41:43.185Z,101148.59
2022-09-05T14:44:43.822Z,101138.16
2022-09-05T14:47:53.586Z,101142.09
2022-09-05T14:50:27.629Z,101140.44
2022-09-05T14:56:57.810Z,101129.19
2022-09-05T15:02:46.291Z,101126.72
2022-09-05T15:02:52.912Z,101121.47
2022-09-05T15:07:01.683Z,101133.72
2022-09-05T15:12:18.912Z,101126.97
2022-09-05T15:12:33.154Z,101126.47
2022-09-05T15:15:13.967Z,101148.34
2022-09-05T15:17:48.600Z,101134.66
2022-09-05T15:20:28.550Z,101133.59
2022-09-05T15:22:57.610Z,101129.94
2022-09-05T15:25:26.963Z,101130.75
2022-09-05T15:27:54.614Z,101129.91
2022-09-05T15:30:35.975Z,101138.81
2022-09-05T15:33:14.678Z,101130.94
2022-09-05T15:35:44.210Z,101131.53
2022-09-05T15:38:48.954Z,101138.13
2022-09-05T15:41:27.861Z,101142.13
2022-09-05T15:43:58.303Z,101136.94
2022-09-05T15:47:06.000Z,101138.94
2022-09-05T15:49:51.212Z,101144.25
2022-09-05T15:52:17.634Z,101134.34
2022-09-05T15:54:53.740Z,101133.28
2022-09-05T15:57:26.712Z,101130.06
2022-09-05T15:59:58.767Z,101134.78
2022-09-05T16:02:26.705Z,101143.75
2022-09-05T16:10:27.487Z,101145.13
2022-09-05T16:10:42.216Z,101136.31
2022-09-05T16:12:14.370Z,101138.56
2022-09-05T16:15:10.423Z,101138.00
2022-09-05T16:23:18.081Z,101136.25
2022-09-05T16:23:23.589Z,101128.91
2022-09-05T16:23:51.094Z,101129.44
2022-09-05T16:26:25.440Z,101126.34
2022-09-05T16:29:01.959Z,101125.84
2022-09-05T16:31:37.467Z,101125.13
2022-09-05T16:34:11.947Z,101126.06
2022-09-05T16:37:08.602Z,101126.56
2022-09-05T16:39:40.512Z,101121.34
2022-09-05T16:42:46.830Z,101121.78
2022-09-05T16:45:14.157Z,101125.13
2022-09-05T16:48:16.247Z,101120.53
2022-09-05T16:51:15.133Z,101131.22
2022-09-05T16:53:59.079Z,101133.53
2022-09-05T16:56:41.880Z,101123.50
2022-09-05T16:59:19.939Z,101137.53
2022-09-05T17:02:34.116Z,101129.50
2022-09-05T17:05:12.735Z,101130.31
2022-09-05T17:07:52.301Z,101122.78
2022-09-05T17:10:25.788Z,101131.69
2022-09-05T17:12:53.986Z,101125.47
2022-09-05T17:15:26.173Z,101134.59
2022-09-05T17:18:19.940Z,101124.13
2022-09-05T17:20:54.467Z,101121.25
2022-09-05T17:29:15.274Z,101131.78
2022-09-05T17:29:41.334Z,101122.38
2022-09-05T17:32:39.561Z,101125.00
2022-09-05T17:35:34.059Z,101123.81
2022-09-05T17:38:22.395Z,101124.91
2022-09-05T17:41:19.637Z,101124.59
2022-09-05T17:43:56.232Z,101119.22
2022-09-05T17:46:31.621Z,101118.81
2022-09-05T17:49:18.726Z,101134.41
2022-09-05T17:51:53.966Z,101147.25
2022-09-05T17:54:31.911Z,101146.50
2022-09-05T17:57:27.414Z,101155.25
2022-09-05T18:00:11.182Z,101157.75
2022-09-05T18:02:54.426Z,101164.88
2022-09-05T18:05:58.099Z,101179.66
2022-09-05T18:08:52.887Z,101172.19
2022-09-05T18:11:25.392Z,101182.78
2022-09-05T18:14:03.040Z,101180.50
2022-09-05T18:16:45.407Z,101174.19
2022-09-05T18:19:34.661Z,101176.19
2022-09-05T18:22:21.574Z,101177.53
2022-09-05T18:25:13.840Z,101180.59
2022-09-05T18:28:05.232Z,101184.53
2022-09-05T18:33:55.883Z,101181.31
2022-09-05T18:36:25.464Z,101185.78
2022-09-05T18:39:23.460Z,101179.34
2022-09-05T18:42:04.207Z,101183.22
2022-09-05T18:44:59.628Z,101186.22
2022-09-05T18:47:32.960Z,101177.94
2022-09-05T18:50:26.197Z,101175.97
2022-09-05T18:53:10.089Z,101180.13
2022-09-05T18:56:13.818Z,101175.22
2022-09-05T18:58:51.695Z,101162.13
2022-09-05T19:01:46.443Z,101177.25
2022-09-05T19:04:39.078Z,101168.56
2022-09-05T19:07:19.209Z,101168.91
2022-09-05T19:10:33.728Z,101167.50
2022-09-05T19:13:00.204Z,101166.25
2022-09-05T19:15:30.987Z,101171.41
2022-09-05T19:18:25.878Z,101170.22
2022-09-05T19:20:55.581Z,101166.97
2022-09-05T19:23:26.097Z,101163.16
2022-09-05T19:25:56.193Z,101173.16
2022-09-05T19:33:18.429Z,101179.81
2022-09-05T19:36:57.696Z,101169.38
2022-09-05T19:37:24.320Z,101167.69
2022-09-05T19:37:30.125Z,101162.00
2022-09-05T19:44:41.318Z,101156.16
2022-09-05T19:47:48.106Z,101161.00
2022-09-05T19:47:51.343Z,101165.50
2022-09-05T19:48:20.348Z,101167.78
2022-09-05T19:50:47.321Z,101160.66
2022-09-05T19:53:17.199Z,101166.91
2022-09-05T19:55:44.953Z,101170.47
2022-09-05T19:58:19.821Z,101158.56
2022-09-05T20:01:00.300Z,101171.56
2022-09-05T20:03:35.475Z,101162.84
2022-09-05T20:06:24.853Z,101163.97
2022-09-05T20:09:17.825Z,101159.72
2022-09-05T20:11:49.873Z,101166.63
2022-09-05T20:14:23.776Z,101159.69
2022-09-05T20:16:54.952Z,101162.72
2022-09-05T20:19:34.610Z,101162.59
2022-09-05T20:22:40.417Z,101169.34
2022-09-05T20:24:54.589Z,101171.91
2022-09-05T20:27:27.386Z,101179.25
2022-09-05T20:30:03.772Z,101172.19
2022-09-05T20:32:39.852Z,101175.81
2022-09-05T20:37:18.485Z,101179.81
2022-09-05T20:43:25.123Z,101178.22
2022-09-05T20:43:32.029Z,101190.03
2022-09-05T20:44:09.005Z,101178.00
2022-09-05T20:50:42.919Z,101190.31
2022-09-05T20:54:14.768Z,101181.06
2022-09-05T20:54:20.331Z,101171.63
2022-09-05T20:55:40.455Z,101177.94
2022-09-05T20:58:24.524Z,101172.63
2022-09-05T21:01:20.370Z,101181.59
2022-09-05T21:03:52.816Z,101177.28
2022-09-05T21:06:45.808Z,101178.13
2022-09-05T21:09:23.795Z,101176.69
2022-09-05T21:11:53.297Z,101182.34
2022-09-05T21:14:22.357Z,101176.00
2022-09-05T21:16:58.472Z,101174.16
2022-09-05T21:19:34.359Z,101176.53
2022-09-05T21:22:20.143Z,101165.72
2022-09-05T21:24:47.287Z,101162.22
2022-09-05T21:27:24.299Z,101162.19
2022-09-05T21:29:58.597Z,101173.13
2022-09-05T21:32:27.956Z,101172.28
2022-09-05T21:35:15.457Z,101160.66
2022-09-05T21:37:53.536Z,101176.91
2022-09-05T21:40:21.229Z,101157.31
2022-09-05T21:47:33.100Z,101156.44
2022-09-05T21:47:49.747Z,101151.81
2022-09-05T21:48:21.670Z,101150.31
2022-09-05T21:50:53.480Z,101150.88
2022-09-05T21:59:13.468Z,101151.03
2022-09-05T21:59:22.284Z,101144.53
2022-09-05T21:59:56.324Z,101139.25
2022-09-05T22:02:14.743Z,101145.63
2022-09-05T22:04:42.044Z,101148.78
2022-09-05T22:07:21.748Z,101147.34
2022-09-05T22:09:59.487Z,101148.41
2022-09-05T22:12:35.711Z,101144.69
2022-09-05T22:15:28.445Z,101140.78
2022-09-05T22:17:54.210Z,101148.84
2022-09-05T22:20:25.103Z,101145.56
2022-09-05T22:22:56.203Z,101136.63
2022-09-05T22:25:28.556Z,101139.94
2022-09-05T22:28:03.396Z,101144.50
2022-09-05T22:30:29.827Z,101148.78
2022-09-05T22:32:56.369Z,101141.81
2022-09-05T22:35:28.473Z,101143.19
2022-09-05T22:38:11.141Z,101146.75
2022-09-05T22:40:40.532Z,101145.06
2022-09-05T22:43:09.003Z,101139.88
2022-09-05T22:45:36.975Z,101136.88
2022-09-05T22:48:12.446Z,101148.44
2022-09-05T22:50:40.231Z,101139.81
2022-09-05T22:53:08.527Z,101134.97
2022-09-05T22:55:36.224Z,101134.13
2022-09-05T22:58:04.060Z,101130.69
2022-09-05T23:00:30.606Z,101127.06
2022-09-05T23:03:01.713Z,101120.09
2022-09-05T23:05:28.509Z,101111.94
2022-09-05T23:08:02.625Z,101113.94
2022-09-05T23:10:30.539Z,101109.94
2022-09-05T23:12:57.139Z,101110.59
2022-09-05T23:15:24.234Z,101109.34
2022-09-05T23:17:55.573Z,101114.16
2022-09-05T23:20:23.180Z,101105.44
2022-09-05T23:22:49.635Z,101110.19
2022-09-05T23:25:16.459Z,101116.47
2022-09-05T23:27:43.078Z,101113.00
2022-09-05T23:30:10.400Z,101114.84
2022-09-05T23:32:37.123Z,101119.22
2022-09-05T23:35:03.782Z,101119.16
2022-09-05T23:37:30.202Z,101117.03
2022-09-05T23:39:56.696Z,101113.59
2022-09-05T23:42:23.176Z,101109.88
2022-09-05T23:44:49.605Z,101110.06
2022-09-05T23:47:16.022Z,101102.09
2022-09-05T23:49:42.490Z,101105.59
2022-09-05T23:52:08.911Z,101102.66
2022-09-05T23:54:35.340Z,101103.06
2022-09-05T23:57:01.754Z,101095.84
2022-09-05T23:59:28.953Z,101098.50
